sensor_id;sensor_type;location;lat;lon;timestamp;pressure;altitude;pressure_sealevel;temperature;humidity
37892;BME280;45797;47.466;9.486;2023-08-08T00:00:58;96097.13;;;15.87;54.07
37892;BME280;45797;47.466;9.486;2023-08-08T00:05:59;96086.69;;;15.86;54.26
37892;BME280;45797;47.466;9.486;2023-08-08T00:11:06;96089.47;;;15.84;54.26
37892;BME280;45797;47.466;9.486;2023-08-08T00:16:10;96084.03;;;15.86;54.36
37892;BME280;45797;47.466;9.486;2023-08-08T00:21:10;96089.63;;;15.83;54.45
37892;BME280;45797;47.466;9.486;2023-08-08T00:26:36;96088.88;;;15.81;54.33
37892;BME280;45797;47.466;9.486;2023-08-08T00:31:41;96080.56;;;15.85;54.54
37892;BME280;45797;47.466;9.486;2023-08-08T00:36:41;96068.47;;;15.83;54.45
37892;BME280;45797;47.466;9.486;2023-08-08T00:41:47;96068.34;;;15.84;54.11
37892;BME280;45797;47.466;9.486;2023-08-08T00:47:03;96068.59;;;15.81;54.52
37892;BME280;45797;47.466;9.486;2023-08-08T00:52:06;96072.66;;;15.85;54.34
37892;BME280;45797;47.466;9.486;2023-08-08T00:57:25;96078.06;;;15.84;54.22
37892;BME280;45797;47.466;9.486;2023-08-08T01:02:29;96077.66;;;15.88;53.99
37892;BME280;45797;47.466;9.486;2023-08-08T01:07:51;96089.28;;;15.66;54.99
37892;BME280;45797;47.466;9.486;2023-08-08T01:12:55;96090.13;;;15.36;55.96
37892;BME280;45797;47.466;9.486;2023-08-08T01:17:58;96075.78;;;15.29;56.14
37892;BME280;45797;47.466;9.486;2023-08-08T01:28:28;96080.13;;;15.09;56.90
37892;BME280;45797;47.466;9.486;2023-08-08T01:33:31;96081.47;;;15.04;57.04
37892;BME280;45797;47.466;9.486;2023-08-08T01:38:38;96071.84;;;14.93;57.42
37892;BME280;45797;47.466;9.486;2023-08-08T01:43:42;96069.13;;;14.83;57.64
37892;BME280;45797;47.466;9.486;2023-08-08T01:49:02;96069.59;;;14.68;58.05
37892;BME280;45797;47.466;9.486;2023-08-08T01:54:03;96067.34;;;14.63;58.32
37892;BME280;45797;47.466;9.486;2023-08-08T01:59:08;96072.56;;;14.53;58.68
37892;BME280;45797;47.466;9.486;2023-08-08T02:04:22;96069.59;;;14.36;58.93
37892;BME280;45797;47.466;9.486;2023-08-08T02:09:22;96070.38;;;14.26;58.69
37892;BME280;45797;47.466;9.486;2023-08-08T02:14:30;96066.81;;;14.16;58.83
37892;BME280;45797;47.466;9.486;2023-08-08T02:19:31;96068.28;;;14.09;59.23
37892;BME280;45797;47.466;9.486;2023-08-08T02:24:32;96067.81;;;14.04;59.23
37892;BME280;45797;47.466;9.486;2023-08-08T02:29:32;96068.44;;;13.96;59.20
37892;BME280;45797;47.466;9.486;2023-08-08T02:34:34;96064.63;;;13.89;59.94
37892;BME280;45797;47.466;9.486;2023-08-08T02:39:35;96055.53;;;13.82;59.60
37892;BME280;45797;47.466;9.486;2023-08-08T02:44:42;96051.00;;;13.73;59.81
37892;BME280;45797;47.466;9.486;2023-08-08T02:49:43;96054.03;;;13.68;59.71
37892;BME280;45797;47.466;9.486;2023-08-08T02:54:44;96043.03;;;13.63;59.63
37892;BME280;45797;47.466;9.486;2023-08-08T02:59:46;96044.25;;;13.59;59.72
37892;BME280;45797;47.466;9.486;2023-08-08T03:04:50;96042.56;;;13.58;59.90
37892;BME280;45797;47.466;9.486;2023-08-08T03:09:50;96058.34;;;13.58;59.70
37892;BME280;45797;47.466;9.486;2023-08-08T03:14:59;96053.09;;;13.58;59.61
37892;BME280;45797;47.466;9.486;2023-08-08T03:20:01;96053.09;;;13.58;59.98
37892;BME280;45797;47.466;9.486;2023-08-08T03:25:09;96059.53;;;13.54;59.84
37892;BME280;45797;47.466;9.486;2023-08-08T03:30:10;96063.28;;;13.52;60.07
37892;BME280;45797;47.466;9.486;2023-08-08T03:35:31;96071.66;;;13.46;60.26
37892;BME280;45797;47.466;9.486;2023-08-08T03:40:43;96078.00;;;13.43;60.23
37892;BME280;45797;47.466;9.486;2023-08-08T03:45:45;96075.59;;;13.40;60.48
37892;BME280;45797;47.466;9.486;2023-08-08T03:50:47;96073.31;;;13.35;60.62
37892;BME280;45797;47.466;9.486;2023-08-08T03:55:51;96074.41;;;13.33;61.00
37892;BME280;45797;47.466;9.486;2023-08-08T04:00:51;96076.22;;;13.21;61.32
37892;BME280;45797;47.466;9.486;2023-08-08T04:05:53;96074.75;;;13.17;61.51
37892;BME280;45797;47.466;9.486;2023-08-08T04:10:54;96078.56;;;13.13;61.31
37892;BME280;45797;47.466;9.486;2023-08-08T04:15:55;96074.13;;;13.13;61.46
37892;BME280;45797;47.466;9.486;2023-08-08T04:20:56;96070.81;;;13.11;61.32
37892;BME280;45797;47.466;9.486;2023-08-08T04:25:58;96072.47;;;13.12;61.50
37892;BME280;45797;47.466;9.486;2023-08-08T04:31:02;96080.75;;;13.19;61.57
37892;BME280;45797;47.466;9.486;2023-08-08T04:36:06;96077.63;;;13.25;61.27
37892;BME280;45797;47.466;9.486;2023-08-08T04:41:06;96081.59;;;13.31;61.20
37892;BME280;45797;47.466;9.486;2023-08-08T04:46:09;96085.03;;;13.42;61.16
37892;BME280;45797;47.466;9.486;2023-08-08T04:51:11;96083.38;;;13.53;61.03
37892;BME280;45797;47.466;9.486;2023-08-08T04:56:15;96078.91;;;13.64;61.02
37892;BME280;45797;47.466;9.486;2023-08-08T05:01:18;96095.41;;;13.78;60.72
37892;BME280;45797;47.466;9.486;2023-08-08T05:06:22;96091.56;;;13.93;60.35
37892;BME280;45797;47.466;9.486;2023-08-08T05:11:24;96092.94;;;14.08;60.93
37892;BME280;45797;47.466;9.486;2023-08-08T05:16:24;96106.81;;;14.21;60.14
37892;BME280;45797;47.466;9.486;2023-08-08T05:21:26;96101.22;;;14.36;60.23
37892;BME280;45797;47.466;9.486;2023-08-08T05:26:29;96101.81;;;14.50;60.02
37892;BME280;45797;47.466;9.486;2023-08-08T05:31:30;96100.09;;;14.61;60.02
37892;BME280;45797;47.466;9.486;2023-08-08T05:36:31;96101.69;;;14.73;59.71
37892;BME280;45797;47.466;9.486;2023-08-08T05:41:33;96093.44;;;14.87;59.37
37892;BME280;45797;47.466;9.486;2023-08-08T05:46:34;96102.16;;;14.99;59.34
37892;BME280;45797;47.466;9.486;2023-08-08T05:51:34;96098.59;;;15.09;59.38
37892;BME280;45797;47.466;9.486;2023-08-08T05:56:36;96109.06;;;15.21;59.24
37892;BME280;45797;47.466;9.486;2023-08-08T06:01:37;96104.66;;;15.31;59.14
37892;BME280;45797;47.466;9.486;2023-08-08T06:06:45;96107.06;;;15.43;59.11
37892;BME280;45797;47.466;9.486;2023-08-08T06:11:49;96104.22;;;15.56;58.91
37892;BME280;45797;47.466;9.486;2023-08-08T06:16:49;96094.28;;;15.69;58.66
37892;BME280;45797;47.466;9.486;2023-08-08T06:21:51;96092.53;;;15.89;58.21
37892;BME280;45797;47.466;9.486;2023-08-08T06:26:52;96091.59;;;16.10;58.14
37892;BME280;45797;47.466;9.486;2023-08-08T06:31:53;96083.69;;;16.39;57.45
37892;BME280;45797;47.466;9.486;2023-08-08T06:36:55;96092.06;;;16.73;57.04
37892;BME280;45797;47.466;9.486;2023-08-08T06:41:55;96079.91;;;16.99;56.53
37892;BME280;45797;47.466;9.486;2023-08-08T06:47:14;96083.19;;;17.21;56.34
37892;BME280;45797;47.466;9.486;2023-08-08T06:52:23;96082.03;;;17.33;56.02
37892;BME280;45797;47.466;9.486;2023-08-08T06:57:24;96093.41;;;17.43;56.60
37892;BME280;45797;47.466;9.486;2023-08-08T07:02:24;96084.22;;;17.47;56.69
37892;BME280;45797;47.466;9.486;2023-08-08T07:07:24;96078.72;;;17.58;56.82
37892;BME280;45797;47.466;9.486;2023-08-08T07:12:27;96077.00;;;17.77;56.68
37892;BME280;45797;47.466;9.486;2023-08-08T07:17:28;96076.50;;;17.91;56.25
37892;BME280;45797;47.466;9.486;2023-08-08T07:22:28;96070.59;;;17.97;56.72
37892;BME280;45797;47.466;9.486;2023-08-08T07:27:29;96068.72;;;18.07;56.62
37892;BME280;45797;47.466;9.486;2023-08-08T07:32:29;96063.66;;;18.14;56.60
37892;BME280;45797;47.466;9.486;2023-08-08T07:37:31;96060.47;;;18.10;56.92
37892;BME280;45797;47.466;9.486;2023-08-08T07:42:33;96056.53;;;18.14;56.75
37892;BME280;45797;47.466;9.486;2023-08-08T07:47:33;96058.13;;;18.25;56.74
37892;BME280;45797;47.466;9.486;2023-08-08T07:52:35;96049.94;;;18.36;56.56
37892;BME280;45797;47.466;9.486;2023-08-08T07:57:48;96047.13;;;18.38;56.71
37892;BME280;45797;47.466;9.486;2023-08-08T08:02:55;96047.81;;;18.40;56.57
37892;BME280;45797;47.466;9.486;2023-08-08T08:08:01;96047.44;;;18.35;57.00
37892;BME280;45797;47.466;9.486;2023-08-08T08:13:02;96036.22;;;18.23;57.42
37892;BME280;45797;47.466;9.486;2023-08-08T08:18:04;96043.03;;;18.25;57.16
37892;BME280;45797;47.466;9.486;2023-08-08T08:23:08;96031.75;;;18.23;57.26
37892;BME280;45797;47.466;9.486;2023-08-08T08:28:10;96036.22;;;18.23;57.33
37892;BME280;45797;47.466;9.486;2023-08-08T08:33:10;96038.56;;;18.26;57.28
37892;BME280;45797;47.466;9.486;2023-08-08T08:38:13;96031.75;;;18.41;56.75
37892;BME280;45797;47.466;9.486;2023-08-08T08:43:15;96020.50;;;18.47;57.07
37892;BME280;45797;47.466;9.486;2023-08-08T08:48:23;96019.41;;;18.68;56.68
37892;BME280;45797;47.466;9.486;2023-08-08T08:53:27;96018.94;;;18.98;56.01
37892;BME280;45797;47.466;9.486;2023-08-08T08:58:28;96009.13;;;19.25;55.69
37892;BME280;45797;47.466;9.486;2023-08-08T09:03:43;96017.72;;;19.53;55.21
37892;BME280;45797;47.466;9.486;2023-08-08T09:08:45;96015.84;;;19.87;54.91
37892;BME280;45797;47.466;9.486;2023-08-08T09:19:45;96020.47;;;20.44;53.69
37892;BME280;45797;47.466;9.486;2023-08-08T09:24:48;96009.97;;;20.75;53.70
37892;BME280;45797;47.466;9.486;2023-08-08T09:29:49;96011.94;;;20.97;53.52
37892;BME280;45797;47.466;9.486;2023-08-08T09:34:51;96008.88;;;21.25;53.25
37892;BME280;45797;47.466;9.486;2023-08-08T09:40:00;96008.63;;;21.51;52.63
37892;BME280;45797;47.466;9.486;2023-08-08T09:45:03;96004.03;;;21.76;52.68
37892;BME280;45797;47.466;9.486;2023-08-08T09:50:06;96012.94;;;21.99;52.53
37892;BME280;45797;47.466;9.486;2023-08-08T09:55:10;95994.94;;;22.24;52.04
37892;BME280;45797;47.466;9.486;2023-08-08T10:00:11;95988.47;;;22.41;52.06
37892;BME280;45797;47.466;9.486;2023-08-08T10:05:15;95993.56;;;22.51;51.55
37892;BME280;45797;47.466;9.486;2023-08-08T10:10:32;95983.25;;;22.48;51.69
37892;BME280;45797;47.466;9.486;2023-08-08T10:15:37;95982.88;;;22.51;51.73
37892;BME280;45797;47.466;9.486;2023-08-08T10:20:38;95981.09;;;22.81;51.44
37892;BME280;45797;47.466;9.486;2023-08-08T10:25:56;95984.47;;;22.98;50.67
37892;BME280;45797;47.466;9.486;2023-08-08T10:31:17;95994.72;;;22.94;50.86
37892;BME280;45797;47.466;9.486;2023-08-08T10:36:19;95988.63;;;22.86;51.33
37892;BME280;45797;47.466;9.486;2023-08-08T10:41:21;95990.28;;;23.01;50.88
37892;BME280;45797;47.466;9.486;2023-08-08T10:46:32;95983.47;;;23.28;50.27
37892;BME280;45797;47.466;9.486;2023-08-08T10:51:42;95989.09;;;23.48;49.73
37892;BME280;45797;47.466;9.486;2023-08-08T10:56:52;95979.50;;;23.54;49.34
37892;BME280;45797;47.466;9.486;2023-08-08T11:01:53;95983.47;;;23.73;49.28
37892;BME280;45797;47.466;9.486;2023-08-08T11:06:54;95968.91;;;23.97;48.37
37892;BME280;45797;47.466;9.486;2023-08-08T11:11:59;95967.66;;;24.14;47.96
37892;BME280;45797;47.466;9.486;2023-08-08T11:17:00;95953.75;;;24.25;47.68
37892;BME280;45797;47.466;9.486;2023-08-08T11:22:00;95956.72;;;24.30;47.71
37892;BME280;45797;47.466;9.486;2023-08-08T11:27:15;95958.56;;;24.30;47.88
37892;BME280;45797;47.466;9.486;2023-08-08T11:32:16;95956.78;;;24.58;47.16
37892;BME280;45797;47.466;9.486;2023-08-08T11:37:16;95951.50;;;24.71;46.84
37892;BME280;45797;47.466;9.486;2023-08-08T11:42:42;95949.66;;;24.72;46.88
37892;BME280;45797;47.466;9.486;2023-08-08T11:47:56;95938.84;;;24.87;46.78
37892;BME280;45797;47.466;9.486;2023-08-08T11:53:08;95948.91;;;25.06;46.49
37892;BME280;45797;47.466;9.486;2023-08-08T11:58:13;95942.16;;;24.89;46.19
37892;BME280;45797;47.466;9.486;2023-08-08T12:03:26;95939.75;;;25.00;46.78
37892;BME280;45797;47.466;9.486;2023-08-08T12:08:43;95939.75;;;25.28;45.69
37892;BME280;45797;47.466;9.486;2023-08-08T12:13:48;95933.13;;;25.24;46.07
37892;BME280;45797;47.466;9.486;2023-08-08T12:18:49;95925.88;;;25.59;45.18
37892;BME280;45797;47.466;9.486;2023-08-08T12:23:50;95926.56;;;25.75;44.98
37892;BME280;45797;47.466;9.486;2023-08-08T12:28:53;95930.41;;;25.66;44.94
37892;BME280;45797;47.466;9.486;2023-08-08T12:33:56;95924.91;;;25.74;45.28
37892;BME280;45797;47.466;9.486;2023-08-08T12:38:56;95939.66;;;25.98;44.78
37892;BME280;45797;47.466;9.486;2023-08-08T12:43:59;95928.75;;;26.32;44.12
37892;BME280;45797;47.466;9.486;2023-08-08T12:49:06;95915.16;;;26.47;44.02
37892;BME280;45797;47.466;9.486;2023-08-08T12:54:07;95931.06;;;26.62;43.61
37892;BME280;45797;47.466;9.486;2023-08-08T12:59:09;95925.50;;;26.63;43.38
37892;BME280;45797;47.466;9.486;2023-08-08T13:04:09;95918.44;;;26.69;43.25
37892;BME280;45797;47.466;9.486;2023-08-08T13:09:10;95909.09;;;26.98;42.71
37892;BME280;45797;47.466;9.486;2023-08-08T13:14:12;95914.38;;;27.51;42.17
37892;BME280;45797;47.466;9.486;2023-08-08T13:19:12;95914.81;;;27.93;41.47
37892;BME280;45797;47.466;9.486;2023-08-08T13:24:16;95910.88;;;28.33;40.99
37892;BME280;45797;47.466;9.486;2023-08-08T13:29:19;95918.25;;;28.44;41.01
37892;BME280;45797;47.466;9.486;2023-08-08T13:34:26;95923.91;;;28.86;40.12
37892;BME280;45797;47.466;9.486;2023-08-08T13:39:27;95913.69;;;28.95;40.02
37892;BME280;45797;47.466;9.486;2023-08-08T13:44:28;95922.63;;;29.32;39.02
37892;BME280;45797;47.466;9.486;2023-08-08T13:49:49;95918.63;;;29.60;38.92
37892;BME280;45797;47.466;9.486;2023-08-08T13:54:50;95911.97;;;29.00;38.67
37892;BME280;45797;47.466;9.486;2023-08-08T14:00:03;95907.78;;;28.23;39.71
37892;BME280;45797;47.466;9.486;2023-08-08T14:05:09;95906.22;;;27.71;40.13
37892;BME280;45797;47.466;9.486;2023-08-08T14:10:16;95903.91;;;28.12;38.99
37892;BME280;45797;47.466;9.486;2023-08-08T14:15:16;95900.84;;;28.65;38.26
37892;BME280;45797;47.466;9.486;2023-08-08T14:20:16;95906.72;;;29.06;37.51
37892;BME280;45797;47.466;9.486;2023-08-08T14:25:29;95895.19;;;29.53;36.68
37892;BME280;45797;47.466;9.486;2023-08-08T14:30:36;95900.22;;;29.98;35.56
37892;BME280;45797;47.466;9.486;2023-08-08T14:35:39;95891.56;;;29.78;35.97
37892;BME280;45797;47.466;9.486;2023-08-08T14:40:39;95888.44;;;29.93;35.30
37892;BME280;45797;47.466;9.486;2023-08-08T14:45:40;95897.75;;;29.12;36.02
37892;BME280;45797;47.466;9.486;2023-08-08T14:50:40;95900.75;;;28.54;36.99
37892;BME280;45797;47.466;9.486;2023-08-08T14:55:42;95901.81;;;28.53;36.94
37892;BME280;45797;47.466;9.486;2023-08-08T15:00:43;95896.41;;;28.53;36.22
37892;BME280;45797;47.466;9.486;2023-08-08T15:05:45;95885.06;;;28.44;35.94
37892;BME280;45797;47.466;9.486;2023-08-08T15:10:48;95896.22;;;28.97;35.42
37892;BME280;45797;47.466;9.486;2023-08-08T15:16:07;95910.41;;;29.11;35.15
37892;BME280;45797;47.466;9.486;2023-08-08T15:21:08;95914.75;;;29.12;34.67
37892;BME280;45797;47.466;9.486;2023-08-08T15:26:08;95909.59;;;29.11;34.78
37892;BME280;45797;47.466;9.486;2023-08-08T15:31:16;95910.41;;;28.86;34.76
37892;BME280;45797;47.466;9.486;2023-08-08T15:36:16;95909.22;;;28.82;34.50
37892;BME280;45797;47.466;9.486;2023-08-08T15:41:17;95896.31;;;29.27;34.10
37892;BME280;45797;47.466;9.486;2023-08-08T15:46:44;95895.34;;;29.40;34.00
37892;BME280;45797;47.466;9.486;2023-08-08T15:51:46;95893.72;;;31.06;31.42
37892;BME280;45797;47.466;9.486;2023-08-08T15:56:46;95891.53;;;32.52;29.58
37892;BME280;45797;47.466;9.486;2023-08-08T16:01:47;95896.78;;;34.14;27.90
37892;BME280;45797;47.466;9.486;2023-08-08T16:07:03;95886.47;;;34.75;27.57
37892;BME280;45797;47.466;9.486;2023-08-08T16:12:03;95886.16;;;36.13;26.18
37892;BME280;45797;47.466;9.486;2023-08-08T16:17:06;95887.75;;;36.09;25.92
37892;BME280;45797;47.466;9.486;2023-08-08T16:22:16;95879.91;;;37.99;24.73
37892;BME280;45797;47.466;9.486;2023-08-08T16:27:17;95877.63;;;39.48;23.15
37892;BME280;45797;47.466;9.486;2023-08-08T16:32:18;95885.31;;;41.07;21.98
37892;BME280;45797;47.466;9.486;2023-08-08T16:37:45;95894.47;;;42.54;21.20
37892;BME280;45797;47.466;9.486;2023-08-08T16:42:45;95898.91;;;43.61;20.40
37892;BME280;45797;47.466;9.486;2023-08-08T16:47:47;95910.66;;;43.36;20.10
37892;BME280;45797;47.466;9.486;2023-08-08T16:52:47;95900.47;;;43.45;20.19
37892;BME280;45797;47.466;9.486;2023-08-08T16:57:47;95907.25;;;44.19;19.81
37892;BME280;45797;47.466;9.486;2023-08-08T17:02:48;95912.44;;;44.20;20.07
37892;BME280;45797;47.466;9.486;2023-08-08T17:07:50;95923.41;;;44.68;19.02
37892;BME280;45797;47.466;9.486;2023-08-08T17:12:56;95913.13;;;43.86;20.21
37892;BME280;45797;47.466;9.486;2023-08-08T17:18:14;95923.56;;;43.89;20.17
37892;BME280;45797;47.466;9.486;2023-08-08T17:23:23;95925.69;;;43.52;20.33
37892;BME280;45797;47.466;9.486;2023-08-08T17:28:23;95912.31;;;41.51;21.26
37892;BME280;45797;47.466;9.486;2023-08-08T17:33:25;95906.88;;;38.32;24.14
37892;BME280;45797;47.466;9.486;2023-08-08T17:38:26;95892.22;;;36.46;25.94
37892;BME280;45797;47.466;9.486;2023-08-08T17:43:52;95896.31;;;36.53;25.82
37892;BME280;45797;47.466;9.486;2023-08-08T17:48:55;95895.53;;;36.58;25.11
37892;BME280;45797;47.466;9.486;2023-08-08T17:53:55;95910.38;;;35.99;25.48
37892;BME280;45797;47.466;9.486;2023-08-08T17:58:55;95910.88;;;34.59;27.07
37892;BME280;45797;47.466;9.486;2023-08-08T18:03:59;95917.06;;;32.85;28.67
37892;BME280;45797;47.466;9.486;2023-08-08T18:09:15;95910.69;;;31.02;30.72
37892;BME280;45797;47.466;9.486;2023-08-08T18:14:21;95911.63;;;29.52;32.28
37892;BME280;45797;47.466;9.486;2023-08-08T18:19:23;95916.19;;;28.40;33.37
37892;BME280;45797;47.466;9.486;2023-08-08T18:24:25;95914.00;;;27.34;34.36
37892;BME280;45797;47.466;9.486;2023-08-08T18:29:25;95915.09;;;26.34;35.46
37892;BME280;45797;47.466;9.486;2023-08-08T18:34:27;95926.44;;;25.48;36.55
37892;BME280;45797;47.466;9.486;2023-08-08T18:39:28;95918.72;;;24.69;37.50
37892;BME280;45797;47.466;9.486;2023-08-08T18:44:28;95920.38;;;24.00;37.90
37892;BME280;45797;47.466;9.486;2023-08-08T18:49:30;95925.84;;;23.41;38.84
37892;BME280;45797;47.466;9.486;2023-08-08T18:54:31;95930.47;;;22.88;39.40
37892;BME280;45797;47.466;9.486;2023-08-08T18:59:31;95930.19;;;22.45;39.99
37892;BME280;45797;47.466;9.486;2023-08-08T19:04:40;95936.16;;;22.09;40.04
37892;BME280;45797;47.466;9.486;2023-08-08T19:09:42;95947.50;;;21.80;40.47
37892;BME280;45797;47.466;9.486;2023-08-08T19:14:42;95954.81;;;21.55;40.98
37892;BME280;45797;47.466;9.486;2023-08-08T19:19:51;95964.88;;;21.37;41.15
37892;BME280;45797;47.466;9.486;2023-08-08T19:24:55;95962.25;;;21.21;41.37
37892;BME280;45797;47.466;9.486;2023-08-08T19:30:03;95968.63;;;21.03;41.46
37892;BME280;45797;47.466;9.486;2023-08-08T19:35:04;95961.34;;;20.89;41.53
37892;BME280;45797;47.466;9.486;2023-08-08T19:40:05;95961.72;;;20.78;42.05
37892;BME280;45797;47.466;9.486;2023-08-08T19:45:06;95950.41;;;20.68;42.05
37892;BME280;45797;47.466;9.486;2023-08-08T19:50:08;95949.59;;;20.59;42.13
37892;BME280;45797;47.466;9.486;2023-08-08T19:55:09;95944.63;;;20.48;42.63
37892;BME280;45797;47.466;9.486;2023-08-08T20:00:12;95942.44;;;20.43;42.75
37892;BME280;45797;47.466;9.486;2023-08-08T20:05:31;95935.94;;;20.30;42.58
37892;BME280;45797;47.466;9.486;2023-08-08T20:10:38;95943.59;;;20.24;42.90
37892;BME280;45797;47.466;9.486;2023-08-08T20:15:39;95945.09;;;20.19;42.74
37892;BME280;45797;47.466;9.486;2023-08-08T20:20:39;95938.59;;;20.13;43.34
37892;BME280;45797;47.466;9.486;2023-08-08T20:25:40;95949.41;;;20.12;43.47
37892;BME280;45797;47.466;9.486;2023-08-08T20:30:49;95941.09;;;20.07;43.55
37892;BME280;45797;47.466;9.486;2023-08-08T20:35:57;95934.44;;;20.03;43.29
37892;BME280;45797;47.466;9.486;2023-08-08T20:41:00;95937.44;;;20.00;43.76
37892;BME280;45797;47.466;9.486;2023-08-08T20:46:01;95935.44;;;19.93;43.71
37892;BME280;45797;47.466;9.486;2023-08-08T20:51:02;95932.94;;;19.92;44.01
37892;BME280;45797;47.466;9.486;2023-08-08T20:56:11;95926.44;;;19.86;43.90
37892;BME280;45797;47.466;9.486;2023-08-08T21:01:26;95919.44;;;19.77;44.30
37892;BME280;45797;47.466;9.486;2023-08-08T21:06:27;95921.44;;;19.75;44.30
37892;BME280;45797;47.466;9.486;2023-08-08T21:11:27;95926.75;;;19.67;44.71
37892;BME280;45797;47.466;9.486;2023-08-08T21:16:37;95924.72;;;19.61;44.42
37892;BME280;45797;47.466;9.486;2023-08-08T21:21:50;95920.88;;;19.55;44.78
37892;BME280;45797;47.466;9.486;2023-08-08T21:26:54;95922.56;;;19.56;44.81
37892;BME280;45797;47.466;9.486;2023-08-08T21:31:56;95920.69;;;19.49;45.42
37892;BME280;45797;47.466;9.486;2023-08-08T21:36:57;95918.53;;;19.44;45.50
37892;BME280;45797;47.466;9.486;2023-08-08T21:41:59;95915.34;;;19.40;45.63
37892;BME280;45797;47.466;9.486;2023-08-08T21:47:03;95918.16;;;19.31;45.52
37892;BME280;45797;47.466;9.486;2023-08-08T21:52:05;95918.94;;;19.23;46.00
37892;BME280;45797;47.466;9.486;2023-08-08T21:57:05;95912.78;;;19.15;46.17
37892;BME280;45797;47.466;9.486;2023-08-08T22:02:16;95914.41;;;19.07;46.29
37892;BME280;45797;47.466;9.486;2023-08-08T22:07:26;95907.09;;;19.01;46.61
37892;BME280;45797;47.466;9.486;2023-08-08T22:12:27;95915.53;;;18.97;46.92
37892;BME280;45797;47.466;9.486;2023-08-08T22:17:27;95905.22;;;18.94;47.19
37892;BME280;45797;47.466;9.486;2023-08-08T22:22:29;95910.84;;;18.91;47.10
37892;BME280;45797;47.466;9.486;2023-08-08T22:27:33;95907.84;;;18.86;47.28
37892;BME280;45797;47.466;9.486;2023-08-08T22:32:34;95913.13;;;18.77;47.93
37892;BME280;45797;47.466;9.486;2023-08-08T22:37:34;95905.78;;;18.71;47.79
37892;BME280;45797;47.466;9.486;2023-08-08T22:42:39;95897.16;;;18.69;47.62
37892;BME280;45797;47.466;9.486;2023-08-08T22:47:40;95906.13;;;18.68;47.85
37892;BME280;45797;47.466;9.486;2023-08-08T22:52:59;95902.75;;;18.66;47.72
37892;BME280;45797;47.466;9.486;2023-08-08T22:57:59;95897.16;;;18.69;48.14
37892;BME280;45797;47.466;9.486;2023-08-08T23:03:10;95894.34;;;18.71;47.83
37892;BME280;45797;47.466;9.486;2023-08-08T23:08:23;95891.34;;;18.74;47.81
37892;BME280;45797;47.466;9.486;2023-08-08T23:13:32;95889.53;;;18.74;48.09
37892;BME280;45797;47.466;9.486;2023-08-08T23:18:39;95891.72;;;18.79;48.41
37892;BME280;45797;47.466;9.486;2023-08-08T23:23:39;95888.91;;;18.80;48.63
37892;BME280;45797;47.466;9.486;2023-08-08T23:28:48;95886.75;;;18.84;48.51
37892;BME280;45797;47.466;9.486;2023-08-08T23:34:03;95888.28;;;18.87;48.21
37892;BME280;45797;47.466;9.486;2023-08-08T23:39:04;95883.97;;;18.94;47.81
37892;BME280;45797;47.466;9.486;2023-08-08T23:44:04;95892.31;;;18.99;48.27
37892;BME280;45797;47.466;9.486;2023-08-08T23:49:05;95883.72;;;19.05;48.04
37892;BME280;45797;47.466;9.486;2023-08-08T23:54:23;95869.78;;;19.11;47.72
37892;BME280;45797;47.466;9.486;2023-08-08T23:59:25;95862.16;;;19.16;47.95
